createdAt,value
2018-04-16T16:34:18.345Z,13.85
2018-04-16T16:36:46.707Z,14.07
2018-04-16T16:39:15.452Z,12.93
2018-04-16T16:41:43.169Z,13.55
2018-04-16T16:44:10.844Z,13.65
2018-04-16T16:46:39.351Z,17.45
2018-04-16T16:49:06.972Z,15.25
2018-04-16T16:51:34.638Z,14.52
2018-04-16T16:54:02.242Z,13.55
2018-04-16T16:56:29.932Z,13.57
2018-04-16T16:58:57.534Z,13.62
2018-04-16T17:01:25.136Z,14.57
2018-04-16T17:03:53.156Z,13.62
2018-04-16T17:06:20.842Z,13.73
2018-04-16T17:08:48.553Z,13.45
2018-04-16T17:11:17.116Z,14.05
2018-04-16T17:13:54.304Z,14.07
2018-04-16T17:16:35.806Z,13.35
2018-04-16T17:19:14.615Z,12.98
2018-04-16T17:21:54.696Z,13.90
2018-04-16T17:24:33.475Z,14.40
2018-04-16T17:27:12.771Z,14.43
2018-04-16T17:29:50.620Z,13.82
2018-04-16T17:32:29.238Z,14.57
2018-04-16T17:35:08.155Z,13.52
2018-04-16T17:37:39.809Z,13.13
2018-04-16T17:40:17.721Z,14.02
2018-04-16T17:42:53.676Z,15.60
2018-04-16T17:45:22.875Z,16.67
2018-04-16T17:47:50.541Z,17.90
2018-04-16T17:50:22.093Z,15.52
2018-04-16T17:52:55.775Z,16.90
2018-04-16T17:55:30.716Z,15.57
2018-04-16T17:58:11.039Z,15.65
2018-04-16T18:00:48.653Z,16.15
2018-04-16T18:03:23.017Z,16.25
2018-04-16T18:06:00.872Z,16.35
2018-04-16T18:08:36.660Z,15.88
2018-04-16T18:11:14.742Z,15.57
2018-04-16T18:13:53.148Z,17.05
2018-04-16T18:16:29.257Z,16.05
2018-04-16T18:19:04.395Z,16.25
2018-04-16T18:21:41.970Z,15.90
2018-04-16T18:24:19.278Z,16.52
2018-04-16T18:26:51.426Z,16.30
2018-04-16T18:29:26.614Z,16.65
2018-04-16T18:32:06.291Z,15.75
2018-04-16T18:34:45.503Z,15.45
2018-04-16T18:37:24.879Z,15.05
2018-04-16T18:39:53.564Z,15.43
2018-04-16T18:42:31.951Z,15.25
2018-04-16T18:45:11.177Z,15.57
2018-04-16T18:47:52.524Z,16.35
2018-04-16T18:50:24.033Z,15.38
2018-04-16T18:53:02.360Z,14.45
2018-04-16T18:55:31.771Z,15.27
2018-04-16T18:58:11.053Z,14.90
2018-04-16T19:00:50.697Z,13.98
2018-04-16T19:03:28.033Z,15.90
2018-04-16T19:06:08.624Z,13.95
2018-04-16T19:08:38.156Z,14.70
2018-04-16T19:11:12.058Z,14.77
2018-04-16T19:13:40.391Z,15.77
2018-04-16T19:16:19.604Z,17.87
2018-04-16T19:18:47.219Z,19.75
2018-04-16T19:21:20.595Z,22.30
2018-04-16T19:23:48.204Z,26.12
2018-04-16T19:26:15.832Z,28.00
2018-04-16T19:28:43.550Z,30.73
2018-04-16T19:31:11.952Z,33.78
2018-04-16T19:33:45.348Z,33.72
2018-04-16T19:36:13.018Z,37.88
2018-04-16T19:38:40.664Z,38.08
2018-04-16T19:41:08.245Z,38.67
2018-04-16T19:43:35.963Z,40.88
2018-04-16T19:46:04.378Z,42.08
2018-04-16T19:48:37.604Z,41.83
2018-04-16T19:51:05.222Z,37.65
2018-04-16T19:53:32.852Z,35.83
2018-04-16T19:56:16.088Z,31.77
2018-04-16T19:58:43.818Z,41.05
2018-04-16T20:01:11.420Z,46.15
2018-04-16T20:03:44.693Z,53.90
2018-04-16T20:06:13.075Z,57.58
2018-04-16T20:08:41.417Z,55.40
2018-04-16T20:11:09.004Z,57.00
2018-04-16T20:13:37.456Z,56.08
2018-04-16T20:16:05.064Z,57.62
2018-04-16T20:18:32.701Z,55.42
2018-04-16T20:21:01.042Z,55.92
2018-04-16T20:23:28.678Z,55.83
2018-04-16T20:25:56.331Z,56.78
2018-04-16T20:28:23.916Z,55.63
2018-04-16T20:30:51.504Z,57.47
2018-04-16T20:33:19.873Z,57.30
2018-04-16T20:35:47.646Z,55.85
2018-04-16T20:38:16.080Z,56.72
2018-04-16T20:40:43.754Z,56.00
2018-04-16T20:43:11.347Z,54.75
2018-04-16T20:45:39.691Z,54.60
2018-04-16T20:48:07.302Z,55.15
2018-04-16T20:50:34.906Z,55.00
2018-04-16T20:53:02.479Z,51.45
2018-04-16T20:55:30.063Z,52.85
2018-04-16T20:57:58.439Z,53.47
2018-04-16T21:00:26.018Z,55.03
2018-04-16T21:02:53.599Z,55.80
2018-04-16T21:05:21.228Z,55.63
2018-04-16T21:12:54.729Z,56.33
2018-04-16T21:15:23.072Z,54.80
2018-04-16T21:17:50.658Z,55.05
2018-04-16T21:20:19.004Z,55.28
2018-04-16T21:22:47.391Z,55.22
2018-04-16T21:25:15.007Z,54.17
2018-04-16T21:27:42.610Z,52.05
2018-04-16T21:30:10.183Z,51.92
2018-04-16T21:32:38.535Z,52.33
2018-04-16T21:35:06.111Z,50.50
2018-04-16T21:37:33.698Z,50.22
2018-04-16T21:40:01.268Z,49.08
2018-04-16T21:42:28.871Z,49.45
2018-04-16T21:44:56.447Z,47.15
2018-04-16T21:47:24.020Z,48.92
2018-04-16T21:49:52.359Z,47.47
2018-04-16T21:52:19.943Z,47.30
2018-04-16T21:54:48.284Z,46.92
2018-04-16T21:57:15.856Z,46.13
2018-04-16T21:59:43.442Z,46.22
2018-04-16T22:02:11.780Z,46.28
2018-04-16T22:04:39.352Z,44.47
2018-04-16T22:07:06.923Z,45.28
2018-04-16T22:09:35.263Z,45.50
2018-04-16T22:12:02.835Z,44.88
2018-04-16T22:14:30.443Z,43.65
2018-04-16T22:16:58.047Z,44.10
2018-04-16T22:19:25.620Z,43.83
2018-04-16T22:21:53.194Z,42.65
2018-04-16T22:24:21.550Z,42.25
2018-04-16T22:26:49.135Z,41.15
2018-04-16T22:29:17.479Z,42.58
2018-04-16T22:31:45.055Z,39.75
2018-04-16T22:34:12.747Z,40.63
2018-04-16T22:36:40.323Z,40.47
2018-04-16T22:39:07.911Z,38.50
2018-04-16T22:41:35.483Z,39.20
2018-04-16T22:44:03.061Z,38.20
2018-04-16T22:46:31.403Z,38.63
2018-04-16T22:48:59.012Z,37.13
2018-04-16T22:51:26.681Z,36.97
2018-04-16T22:53:54.260Z,36.45
2018-04-16T22:56:21.836Z,35.90
2018-04-16T22:58:49.414Z,36.40
2018-04-16T23:01:17.025Z,36.22
2018-04-16T23:03:44.611Z,36.35
2018-04-16T23:06:12.187Z,35.08
2018-04-16T23:08:39.791Z,35.85
2018-04-16T23:11:07.363Z,34.00
2018-04-16T23:13:34.935Z,34.45
2018-04-16T23:16:02.507Z,34.22
2018-04-16T23:18:31.077Z,33.75
2018-04-16T23:20:58.651Z,32.95
2018-04-16T23:23:26.259Z,33.38
2018-04-16T23:25:53.833Z,32.10
2018-04-16T23:28:21.410Z,32.22
2018-04-16T23:30:48.982Z,32.63
2018-04-16T23:33:16.582Z,31.17
2018-04-16T23:35:44.151Z,32.00
2018-04-16T23:38:11.731Z,31.10
2018-04-16T23:40:39.307Z,31.23
2018-04-16T23:43:06.879Z,30.85
2018-04-16T23:45:34.451Z,29.73
2018-04-16T23:48:02.788Z,29.70
2018-04-16T23:50:31.185Z,29.40
2018-04-16T23:52:58.733Z,28.98
2018-04-16T23:55:26.311Z,29.70
2018-04-16T23:57:53.882Z,28.73
